createdAt,value
2023-05-21T00:00:04.714Z,94482.00
2023-05-21T00:01:04.730Z,94482.00
2023-05-21T00:02:04.739Z,94483.00
2023-05-21T00:03:04.813Z,94480.00
2023-05-21T00:04:05.074Z,94482.00
2023-05-21T00:05:04.834Z,94482.00
2023-05-21T00:06:04.906Z,94480.00
2023-05-21T00:07:04.881Z,94482.00
2023-05-21T00:08:04.931Z,94482.00
2023-05-21T00:09:04.983Z,94480.00
2023-05-21T00:10:05.047Z,94480.00
2023-05-21T00:11:05.109Z,94476.00
2023-05-21T00:12:05.125Z,94476.00
2023-05-21T00:13:05.148Z,94474.00
2023-05-21T00:14:05.148Z,94476.00
2023-05-21T00:15:05.252Z,94472.00
2023-05-21T00:16:05.260Z,94474.00
2023-05-21T00:17:05.232Z,94470.00
2023-05-21T00:18:05.338Z,94476.00
2023-05-21T00:19:05.382Z,94472.00
2023-05-21T00:20:05.373Z,94474.00
2023-05-21T00:21:05.369Z,94480.00
2023-05-21T00:22:05.420Z,94480.00
2023-05-21T00:23:05.432Z,94480.00
2023-05-21T00:24:05.445Z,94480.00
2023-05-21T00:25:05.434Z,94478.00
2023-05-21T00:26:05.489Z,94480.00
2023-05-21T00:27:05.533Z,94478.00
2023-05-21T00:28:05.526Z,94483.00
2023-05-21T00:29:05.541Z,94483.00
2023-05-21T00:30:05.616Z,94483.00
2023-05-21T00:31:05.601Z,94483.00
2023-05-21T00:32:05.746Z,94483.00
2023-05-21T00:33:05.736Z,94482.00
2023-05-21T00:34:05.759Z,94480.00
2023-05-21T00:35:05.802Z,94480.00
2023-05-21T00:36:05.879Z,94482.00
2023-05-21T00:37:05.896Z,94476.00
2023-05-21T00:38:05.890Z,94476.00
2023-05-21T00:39:05.887Z,94476.00
2023-05-21T00:40:05.950Z,94480.00
2023-05-21T00:41:05.998Z,94480.00
2023-05-21T00:42:06.019Z,94482.00
2023-05-21T00:43:06.060Z,94478.00
2023-05-21T00:44:06.085Z,94478.00
2023-05-21T00:45:06.136Z,94478.00
2023-05-21T00:46:06.189Z,94483.00
2023-05-21T00:47:06.213Z,94482.00
2023-05-21T00:48:06.319Z,94478.00
2023-05-21T00:49:06.313Z,94478.00
2023-05-21T00:50:06.354Z,94478.00
2023-05-21T00:51:06.377Z,94480.00
2023-05-21T00:52:06.431Z,94478.00
2023-05-21T00:53:06.431Z,94476.00
2023-05-21T00:54:06.455Z,94476.00
2023-05-21T00:55:06.516Z,94474.00
2023-05-21T00:56:06.545Z,94476.00
2023-05-21T00:57:06.555Z,94478.00
2023-05-21T00:58:06.647Z,94478.00
2023-05-21T00:59:06.681Z,94478.00
2023-05-21T01:00:06.677Z,94478.00
2023-05-21T01:01:06.797Z,94474.00
2023-05-21T01:02:06.755Z,94480.00
2023-05-21T01:03:06.779Z,94480.00
2023-05-21T01:04:06.763Z,94480.00
2023-05-21T01:05:06.803Z,94476.00
2023-05-21T01:06:06.854Z,94474.00
2023-05-21T01:07:06.858Z,94470.00
2023-05-21T01:08:06.850Z,94472.00
2023-05-21T01:09:06.923Z,94476.00
2023-05-21T01:10:06.927Z,94476.00
2023-05-21T01:11:06.968Z,94474.00
2023-05-21T01:12:07.015Z,94474.00
2023-05-21T01:13:07.027Z,94470.00
2023-05-21T01:14:07.141Z,94472.00
2023-05-21T01:15:07.143Z,94472.00
2023-05-21T01:16:07.168Z,94472.00
2023-05-21T01:17:07.283Z,94472.00
2023-05-21T01:18:07.406Z,94472.00
2023-05-21T01:19:07.342Z,94470.00
2023-05-21T01:20:09.220Z,94468.00
2023-05-21T01:21:07.300Z,94468.00
2023-05-21T01:22:07.326Z,94468.00
2023-05-21T01:23:07.357Z,94466.00
2023-05-21T01:24:07.425Z,94470.00
2023-05-21T01:25:07.433Z,94468.00
2023-05-21T01:26:07.493Z,94468.00
2023-05-21T01:27:07.560Z,94466.00
2023-05-21T01:28:07.574Z,94466.00
2023-05-21T01:29:07.585Z,94468.00
2023-05-21T01:30:07.621Z,94470.00
2023-05-21T01:31:07.664Z,94468.00
2023-05-21T01:32:07.706Z,94470.00
2023-05-21T01:33:07.817Z,94466.00
2023-05-21T01:34:07.809Z,94462.00
2023-05-21T01:35:07.776Z,94464.00
2023-05-21T01:36:07.826Z,94466.00
2023-05-21T01:37:07.869Z,94470.00
2023-05-21T01:38:07.956Z,94468.00
2023-05-21T01:39:07.987Z,94466.00
2023-05-21T01:40:08.045Z,94466.00
2023-05-21T01:41:08.046Z,94464.00
2023-05-21T01:42:08.042Z,94468.00
2023-05-21T01:43:08.093Z,94464.00
2023-05-21T01:44:08.106Z,94468.00
2023-05-21T01:45:08.162Z,94468.00
2023-05-21T01:46:08.217Z,94466.00
2023-05-21T01:47:08.176Z,94466.00
2023-05-21T01:48:08.210Z,94466.00
2023-05-21T01:49:08.250Z,94464.00
2023-05-21T01:50:08.229Z,94458.00
2023-05-21T01:51:08.263Z,94456.00
2023-05-21T01:52:08.322Z,94452.00
2023-05-21T01:53:08.358Z,94452.00
2023-05-21T01:54:08.375Z,94456.00
2023-05-21T01:55:08.430Z,94456.00
2023-05-21T01:56:08.476Z,94464.00
2023-05-21T01:57:08.540Z,94460.00
2023-05-21T01:58:08.561Z,94458.00
2023-05-21T01:59:08.603Z,94458.00
2023-05-21T02:00:08.667Z,94458.00
2023-05-21T02:01:08.720Z,94460.00
2023-05-21T02:02:08.838Z,94458.00
2023-05-21T02:03:09.047Z,94462.00
2023-05-21T02:04:08.858Z,94460.00
2023-05-21T02:05:08.864Z,94462.00
2023-05-21T02:06:08.896Z,94462.00
2023-05-21T02:07:08.914Z,94462.00
2023-05-21T02:08:08.916Z,94460.00
2023-05-21T02:09:08.944Z,94464.00
2023-05-21T02:10:08.955Z,94462.00
2023-05-21T02:11:09.036Z,94464.00
2023-05-21T02:12:08.992Z,94464.00
2023-05-21T02:13:09.022Z,94468.00
2023-05-21T02:14:09.058Z,94466.00
2023-05-21T02:15:09.058Z,94470.00
2023-05-21T02:16:09.109Z,94468.00
2023-05-21T02:17:09.123Z,94468.00
2023-05-21T02:18:09.151Z,94470.00
2023-05-21T02:19:09.195Z,94472.00
2023-05-21T02:20:09.118Z,94472.00
2023-05-21T02:21:09.224Z,94474.00
2023-05-21T02:22:09.142Z,94480.00
2023-05-21T02:23:09.178Z,94478.00
2023-05-21T02:24:09.164Z,94476.00
2023-05-21T02:25:09.212Z,94470.00
2023-05-21T02:26:09.238Z,94470.00
2023-05-21T02:27:09.264Z,94472.00
2023-05-21T02:28:09.293Z,94472.00
2023-05-21T02:29:09.336Z,94472.00
2023-05-21T02:30:09.393Z,94474.00
2023-05-21T02:31:09.396Z,94468.00
2023-05-21T02:32:09.448Z,94468.00
2023-05-21T02:33:09.562Z,94466.00
2023-05-21T02:34:09.624Z,94464.00
2023-05-21T02:35:09.526Z,94462.00
2023-05-21T02:36:09.558Z,94460.00
2023-05-21T02:37:09.581Z,94456.00
2023-05-21T02:38:09.600Z,94454.00
2023-05-21T02:39:09.604Z,94456.00
2023-05-21T02:40:09.627Z,94458.00
2023-05-21T02:41:09.663Z,94458.00
2023-05-21T02:42:09.690Z,94452.00
2023-05-21T02:43:09.718Z,94456.00
2023-05-21T02:44:09.760Z,94452.00
2023-05-21T02:45:09.822Z,94450.00
2023-05-21T02:46:09.932Z,94452.00
2023-05-21T02:47:09.882Z,94450.00
2023-05-21T02:48:10.021Z,94450.00
2023-05-21T02:49:10.000Z,94448.00
2023-05-21T02:50:09.984Z,94448.00
2023-05-21T02:51:10.016Z,94452.00
2023-05-21T02:52:09.990Z,94450.00
2023-05-21T02:53:10.004Z,94452.00
2023-05-21T02:54:09.987Z,94452.00
2023-05-21T02:55:10.080Z,94450.00
2023-05-21T02:56:10.067Z,94450.00
2023-05-21T02:57:10.085Z,94452.00
2023-05-21T02:58:10.129Z,94452.00
2023-05-21T02:59:10.164Z,94450.00
2023-05-21T03:00:10.217Z,94454.00
2023-05-21T03:01:10.307Z,94452.00
2023-05-21T03:02:10.300Z,94454.00
2023-05-21T03:03:10.311Z,94450.00
2023-05-21T03:04:10.295Z,94450.00
2023-05-21T03:05:10.357Z,94452.00
2023-05-21T03:06:10.342Z,94454.00
2023-05-21T03:07:10.367Z,94462.00
2023-05-21T03:08:10.424Z,94462.00
2023-05-21T03:09:10.432Z,94460.00
2023-05-21T03:10:10.488Z,94464.00
2023-05-21T03:11:10.530Z,94464.00
2023-05-21T03:12:10.564Z,94466.00
2023-05-21T03:13:10.631Z,94464.00
2023-05-21T03:14:10.670Z,94460.00
2023-05-21T03:15:10.689Z,94460.00
2023-05-21T03:16:10.730Z,94464.00
2023-05-21T03:17:10.755Z,94466.00
2023-05-21T03:18:10.876Z,94466.00
2023-05-21T03:19:10.933Z,94470.00
2023-05-21T03:20:10.924Z,94466.00
2023-05-21T03:21:10.963Z,94462.00
2023-05-21T03:22:11.016Z,94462.00
2023-05-21T03:23:11.087Z,94462.00
2023-05-21T03:24:11.113Z,94464.00
2023-05-21T03:25:11.152Z,94466.00
2023-05-21T03:26:11.143Z,94464.00
2023-05-21T03:27:11.204Z,94462.00
2023-05-21T03:28:11.246Z,94460.00
2023-05-21T03:29:11.270Z,94458.00
2023-05-21T03:30:11.314Z,94460.00
2023-05-21T03:31:11.290Z,94464.00
2023-05-21T03:32:11.393Z,94466.00
2023-05-21T03:33:11.431Z,94466.00
2023-05-21T03:34:11.362Z,94466.00
2023-05-21T03:35:11.368Z,94466.00
2023-05-21T03:36:11.399Z,94464.00
2023-05-21T03:37:11.479Z,94466.00
2023-05-21T03:38:11.481Z,94468.00
2023-05-21T03:39:11.511Z,94470.00
2023-05-21T03:40:11.507Z,94470.00
2023-05-21T03:41:11.591Z,94472.00
2023-05-21T03:42:11.650Z,94474.00
2023-05-21T03:43:11.601Z,94476.00
2023-05-21T03:44:11.660Z,94476.00
2023-05-21T03:45:11.702Z,94474.00
2023-05-21T03:46:11.771Z,94472.00
2023-05-21T03:47:11.786Z,94468.00
2023-05-21T03:48:11.844Z,94472.00
2023-05-21T03:49:11.855Z,94470.00
2023-05-21T03:50:11.884Z,94472.00
2023-05-21T03:51:11.927Z,94470.00
2023-05-21T03:52:11.910Z,94472.00
2023-05-21T03:53:11.973Z,94478.00
2023-05-21T03:54:11.967Z,94478.00
2023-05-21T03:55:12.049Z,94474.00
2023-05-21T03:56:12.052Z,94476.00
2023-05-21T03:57:12.085Z,94478.00
2023-05-21T03:58:12.152Z,94474.00
2023-05-21T03:59:12.139Z,94470.00
2023-05-21T04:00:12.205Z,94466.00
2023-05-21T04:01:12.201Z,94466.00
2023-05-21T04:02:12.226Z,94478.00
2023-05-21T04:03:12.460Z,94482.00
2023-05-21T04:04:12.396Z,94480.00
2023-05-21T04:05:12.332Z,94482.00
2023-05-21T04:06:12.334Z,94476.00
2023-05-21T04:07:12.328Z,94480.00
2023-05-21T04:08:12.339Z,94480.00
2023-05-21T04:09:12.369Z,94480.00
2023-05-21T04:10:12.368Z,94483.00
2023-05-21T04:11:12.395Z,94482.00
2023-05-21T04:12:12.442Z,94480.00
2023-05-21T04:13:12.504Z,94483.00
2023-05-21T04:14:12.479Z,94487.00
2023-05-21T04:15:12.499Z,94489.00
2023-05-21T04:16:12.596Z,94493.00
2023-05-21T04:17:12.573Z,94491.00
2023-05-21T04:18:12.638Z,94489.00
2023-05-21T04:19:12.747Z,94495.00
2023-05-21T04:20:12.720Z,94501.00
2023-05-21T04:21:12.778Z,94503.00
2023-05-21T04:22:12.826Z,94505.00
2023-05-21T04:23:12.890Z,94507.00
2023-05-21T04:24:12.905Z,94505.00
2023-05-21T04:25:12.963Z,94505.00
2023-05-21T04:26:13.010Z,94505.00
2023-05-21T04:27:13.091Z,94503.00
2023-05-21T04:28:13.116Z,94503.00
2023-05-21T04:29:13.129Z,94507.00
2023-05-21T04:30:13.169Z,94509.00
2023-05-21T04:31:13.251Z,94513.00
2023-05-21T04:32:13.250Z,94511.00
2023-05-21T04:33:13.281Z,94509.00
2023-05-21T04:34:13.327Z,94507.00
2023-05-21T04:35:13.334Z,94503.00
2023-05-21T04:36:13.385Z,94505.00
2023-05-21T04:37:13.397Z,94507.00
2023-05-21T04:38:13.457Z,94509.00
2023-05-21T04:39:13.460Z,94509.00
2023-05-21T04:40:13.451Z,94507.00
2023-05-21T04:41:13.460Z,94501.00
2023-05-21T04:42:13.504Z,94499.00
2023-05-21T04:43:13.531Z,94493.00
2023-05-21T04:44:13.525Z,94493.00
2023-05-21T04:45:13.621Z,94493.00
2023-05-21T04:46:13.633Z,94493.00
2023-05-21T04:47:13.664Z,94497.00
2023-05-21T04:48:13.657Z,94501.00
2023-05-21T04:49:13.697Z,94499.00
2023-05-21T04:50:13.696Z,94499.00
2023-05-21T04:51:13.733Z,94499.00
2023-05-21T04:52:13.710Z,94497.00
2023-05-21T04:53:13.774Z,94495.00
2023-05-21T04:54:13.764Z,94497.00
2023-05-21T04:55:13.790Z,94491.00
2023-05-21T04:56:13.873Z,94489.00
2023-05-21T04:57:13.897Z,94493.00
2023-05-21T04:58:13.881Z,94491.00
2023-05-21T04:59:13.920Z,94495.00
2023-05-21T05:00:13.955Z,94495.00
2023-05-21T05:01:13.993Z,94495.00
2023-05-21T05:02:14.046Z,94493.00
2023-05-21T05:03:14.300Z,94495.00
2023-05-21T05:04:14.130Z,94499.00
2023-05-21T05:05:14.089Z,94495.00
2023-05-21T05:06:14.138Z,94493.00
2023-05-21T05:07:14.293Z,94491.00
2023-05-21T05:08:15.974Z,94487.00
2023-05-21T05:09:14.236Z,94487.00
2023-05-21T05:10:14.232Z,94485.00
2023-05-21T05:11:14.245Z,94483.00
2023-05-21T05:12:14.331Z,94485.00
2023-05-21T05:13:14.316Z,94487.00
2023-05-21T05:14:14.345Z,94485.00
2023-05-21T05:15:14.336Z,94485.00
2023-05-21T05:16:14.367Z,94485.00
2023-05-21T05:17:14.377Z,94485.00
2023-05-21T05:18:14.384Z,94487.00
2023-05-21T05:19:14.468Z,94485.00
2023-05-21T05:20:14.491Z,94485.00
2023-05-21T05:21:14.505Z,94483.00
2023-05-21T05:22:14.539Z,94482.00
2023-05-21T05:23:14.575Z,94482.00
2023-05-21T05:24:14.594Z,94480.00
2023-05-21T05:25:14.613Z,94482.00
2023-05-21T05:26:14.678Z,94480.00
2023-05-21T05:27:14.700Z,94478.00
2023-05-21T05:28:14.749Z,94476.00
2023-05-21T05:29:14.792Z,94476.00
2023-05-21T05:30:14.814Z,94480.00
2023-05-21T05:31:14.905Z,94478.00
2023-05-21T05:32:14.907Z,94482.00
2023-05-21T05:33:14.896Z,94483.00
2023-05-21T05:34:14.895Z,94482.00
2023-05-21T05:35:14.940Z,94483.00
2023-05-21T05:36:14.979Z,94482.00
2023-05-21T05:37:14.997Z,94482.00
2023-05-21T05:38:15.008Z,94478.00
2023-05-21T05:39:15.015Z,94478.00
2023-05-21T05:40:15.067Z,94476.00
2023-05-21T05:41:15.097Z,94478.00
2023-05-21T05:42:15.109Z,94476.00
2023-05-21T05:43:15.157Z,94478.00
2023-05-21T05:44:15.235Z,94476.00
2023-05-21T05:45:15.251Z,94470.00
2023-05-21T05:46:15.383Z,94472.00
2023-05-21T05:47:15.320Z,94472.00
2023-05-21T05:48:15.326Z,94476.00
2023-05-21T05:49:15.346Z,94476.00
2023-05-21T05:50:15.367Z,94476.00
2023-05-21T05:51:15.409Z,94474.00
2023-05-21T05:52:15.404Z,94476.00
2023-05-21T05:53:15.437Z,94476.00
2023-05-21T05:54:15.432Z,94474.00
2023-05-21T05:55:15.467Z,94476.00
2023-05-21T05:56:15.483Z,94472.00
2023-05-21T05:57:15.535Z,94474.00
2023-05-21T05:58:15.584Z,94470.00
2023-05-21T05:59:15.643Z,94468.00
2023-05-21T06:00:15.636Z,94468.00
2023-05-21T06:01:15.718Z,94472.00
2023-05-21T06:02:15.739Z,94472.00
2023-05-21T06:03:15.887Z,94476.00
2023-05-21T06:04:15.788Z,94476.00
2023-05-21T06:05:15.867Z,94478.00
2023-05-21T06:06:15.904Z,94478.00
2023-05-21T06:07:15.847Z,94476.00
2023-05-21T06:08:15.889Z,94476.00
2023-05-21T06:09:15.925Z,94474.00
2023-05-21T06:10:15.979Z,94470.00
2023-05-21T06:11:16.027Z,94470.00
2023-05-21T06:12:16.036Z,94470.00
2023-05-21T06:13:16.090Z,94470.00
2023-05-21T06:14:16.111Z,94472.00
2023-05-21T06:15:16.120Z,94470.00
2023-05-21T06:16:16.211Z,94468.00
2023-05-21T06:17:16.155Z,94460.00
2023-05-21T06:18:16.147Z,94466.00
2023-05-21T06:19:16.239Z,94464.00
2023-05-21T06:20:16.253Z,94464.00
2023-05-21T06:21:16.260Z,94464.00
2023-05-21T06:22:16.295Z,94468.00
2023-05-21T06:23:16.314Z,94464.00
2023-05-21T06:24:16.323Z,94466.00
2023-05-21T06:25:16.344Z,94462.00
2023-05-21T06:26:16.334Z,94458.00
2023-05-21T06:27:16.379Z,94454.00
2023-05-21T06:28:16.429Z,94452.00
2023-05-21T06:29:16.454Z,94450.00
2023-05-21T06:30:16.494Z,94452.00
2023-05-21T06:31:16.526Z,94454.00
2023-05-21T06:32:16.582Z,94460.00
2023-05-21T06:33:16.626Z,94456.00
2023-05-21T06:34:16.644Z,94456.00
2023-05-21T06:35:16.669Z,94450.00
2023-05-21T06:36:16.712Z,94450.00
2023-05-21T06:37:16.719Z,94448.00
2023-05-21T06:38:16.732Z,94446.00
2023-05-21T06:39:16.815Z,94446.00
2023-05-21T06:40:16.808Z,94448.00
2023-05-21T06:41:16.820Z,94450.00
2023-05-21T06:42:16.856Z,94452.00
2023-05-21T06:43:16.898Z,94450.00
2023-05-21T06:44:16.910Z,94444.00
2023-05-21T06:45:16.940Z,94440.00
2023-05-21T06:46:17.008Z,94448.00
2023-05-21T06:47:17.025Z,94452.00
2023-05-21T06:48:17.039Z,94454.00
2023-05-21T06:49:17.047Z,94454.00
2023-05-21T06:50:17.079Z,94454.00
2023-05-21T06:51:17.181Z,94452.00
2023-05-21T06:52:17.165Z,94448.00
2023-05-21T06:53:17.185Z,94444.00
2023-05-21T06:54:17.201Z,94442.00
2023-05-21T06:55:17.289Z,94442.00
2023-05-21T06:56:17.297Z,94450.00
2023-05-21T06:57:17.336Z,94456.00
2023-05-21T06:58:17.336Z,94456.00
2023-05-21T06:59:17.407Z,94458.00
2023-05-21T07:00:17.371Z,94460.00
2023-05-21T07:01:17.462Z,94454.00
2023-05-21T07:02:17.534Z,94452.00
2023-05-21T07:03:18.232Z,94446.00
2023-05-21T07:04:17.501Z,94450.00
2023-05-21T07:05:17.544Z,94450.00
2023-05-21T07:06:17.553Z,94454.00
2023-05-21T07:07:17.607Z,94452.00
2023-05-21T07:08:17.609Z,94452.00
2023-05-21T07:09:17.635Z,94452.00
2023-05-21T07:10:17.687Z,94448.00
2023-05-21T07:11:17.702Z,94450.00
2023-05-21T07:12:17.723Z,94446.00
2023-05-21T07:13:17.756Z,94444.00
2023-05-21T07:14:17.758Z,94448.00
2023-05-21T07:15:17.808Z,94442.00
2023-05-21T07:16:17.917Z,94440.00
2023-05-21T07:17:17.821Z,94442.00
2023-05-21T07:18:17.888Z,94442.00
2023-05-21T07:19:17.948Z,94438.00
2023-05-21T07:20:17.949Z,94436.00
2023-05-21T07:21:18.003Z,94433.00
2023-05-21T07:22:18.007Z,94433.00
2023-05-21T07:23:18.074Z,94429.00
2023-05-21T07:24:18.075Z,94431.00
2023-05-21T07:25:18.111Z,94427.00
2023-05-21T07:26:18.133Z,94429.00
2023-05-21T07:27:25.337Z,94425.00
2023-05-21T07:28:19.157Z,94427.00
2023-05-21T07:29:18.557Z,94427.00
2023-05-21T07:30:18.145Z,94427.00
2023-05-21T07:31:18.141Z,94427.00
2023-05-21T07:32:18.155Z,94425.00
2023-05-21T07:33:18.120Z,94417.00
2023-05-21T07:34:18.146Z,94419.00
2023-05-21T07:35:18.085Z,94421.00
2023-05-21T07:36:18.101Z,94417.00
2023-05-21T07:37:18.092Z,94413.00
2023-05-21T07:38:18.087Z,94415.00
2023-05-21T07:39:18.069Z,94415.00
2023-05-21T07:40:18.062Z,94411.00
2023-05-21T07:41:18.838Z,94413.00
2023-05-21T07:42:18.176Z,94411.00
2023-05-21T07:43:18.121Z,94415.00
2023-05-21T07:44:18.143Z,94417.00
2023-05-21T07:45:18.171Z,94421.00
2023-05-21T07:46:18.195Z,94415.00
2023-05-21T07:47:18.207Z,94417.00
2023-05-21T07:48:18.269Z,94411.00
2023-05-21T07:49:18.256Z,94409.00
2023-05-21T07:50:18.301Z,94409.00
2023-05-21T07:51:18.297Z,94409.00
2023-05-21T07:52:18.363Z,94407.00
2023-05-21T07:53:18.401Z,94403.00
2023-05-21T07:54:18.423Z,94397.00
2023-05-21T07:55:18.451Z,94397.00
2023-05-21T07:56:18.489Z,94395.00
2023-05-21T07:57:18.497Z,94395.00
2023-05-21T07:58:18.541Z,94395.00
2023-05-21T07:59:18.555Z,94399.00
2023-05-21T08:00:18.588Z,94399.00
2023-05-21T08:01:18.614Z,94397.00
2023-05-21T08:02:18.748Z,94397.00
2023-05-21T08:03:18.793Z,94397.00
2023-05-21T08:04:18.881Z,94397.00
2023-05-21T08:05:18.886Z,94397.00
2023-05-21T08:06:18.863Z,94397.00
2023-05-21T08:07:18.830Z,94393.00
2023-05-21T08:08:18.868Z,94397.00
2023-05-21T08:09:18.906Z,94397.00
2023-05-21T08:10:19.516Z,94397.00
2023-05-21T08:11:18.992Z,94399.00
2023-05-21T08:12:19.028Z,94397.00
2023-05-21T08:13:19.079Z,94397.00
2023-05-21T08:14:19.105Z,94395.00
2023-05-21T08:15:19.170Z,94395.00
2023-05-21T08:16:19.202Z,94393.00
2023-05-21T08:17:19.251Z,94393.00
2023-05-21T08:18:19.296Z,94393.00
2023-05-21T08:19:19.419Z,94391.00
2023-05-21T08:20:19.361Z,94387.00
2023-05-21T08:21:19.391Z,94385.00
2023-05-21T08:22:19.432Z,94383.00
2023-05-21T08:23:19.476Z,94387.00
2023-05-21T08:24:19.505Z,94389.00
2023-05-21T08:25:19.540Z,94387.00
2023-05-21T08:26:19.560Z,94387.00
2023-05-21T08:27:19.606Z,94385.00
2023-05-21T08:28:19.657Z,94383.00
2023-05-21T08:29:19.662Z,94385.00
2023-05-21T08:30:19.674Z,94380.00
2023-05-21T08:31:19.728Z,94380.00
2023-05-21T08:32:19.755Z,94376.00
2023-05-21T08:33:21.377Z,94374.00
2023-05-21T08:34:19.764Z,94358.00
2023-05-21T08:35:19.766Z,94358.00
2023-05-21T08:36:19.762Z,94356.00
2023-05-21T08:37:19.826Z,94358.00
2023-05-21T08:38:19.872Z,94362.00
2023-05-21T08:39:19.879Z,94364.00
2023-05-21T08:40:19.896Z,94364.00
2023-05-21T08:41:19.930Z,94360.00
2023-05-21T08:42:32.933Z,94360.00
2023-05-21T08:43:20.970Z,94358.00
2023-05-21T08:44:19.928Z,94354.00
2023-05-21T08:45:19.923Z,94354.00
2023-05-21T08:46:19.972Z,94354.00
2023-05-21T08:47:19.922Z,94358.00
2023-05-21T08:48:19.942Z,94356.00
2023-05-21T08:49:19.890Z,94358.00
2023-05-21T08:50:19.912Z,94356.00
2023-05-21T08:51:19.894Z,94356.00
2023-05-21T08:52:19.862Z,94356.00
2023-05-21T08:53:28.111Z,94356.00
2023-05-21T08:54:20.924Z,94352.00
2023-05-21T08:55:19.889Z,94350.00
2023-05-21T08:56:19.893Z,94344.00
2023-05-21T08:57:19.875Z,94344.00
2023-05-21T08:58:19.826Z,94342.00
2023-05-21T08:59:19.842Z,94344.00
2023-05-21T09:00:19.854Z,94344.00
2023-05-21T09:01:19.969Z,94339.00
2023-05-21T09:02:19.830Z,94337.00
2023-05-21T09:03:19.869Z,94337.00
2023-05-21T09:04:21.702Z,94333.00
2023-05-21T09:05:19.800Z,94333.00
2023-05-21T09:06:19.807Z,94333.00
2023-05-21T09:07:19.800Z,94333.00
2023-05-21T09:08:19.875Z,94335.00
2023-05-21T09:09:19.874Z,94337.00
2023-05-21T09:10:19.940Z,94342.00
2023-05-21T09:11:19.937Z,94348.00
2023-05-21T09:12:19.929Z,94342.00
2023-05-21T09:13:19.969Z,94344.00
2023-05-21T09:14:19.955Z,94350.00
2023-05-21T09:15:19.994Z,94352.00
2023-05-21T09:16:20.060Z,94360.00
2023-05-21T09:17:20.102Z,94339.00
2023-05-21T09:18:20.141Z,94337.00
2023-05-21T09:19:20.249Z,94340.00
2023-05-21T09:20:20.230Z,94327.00
2023-05-21T09:21:20.209Z,94335.00
2023-05-21T09:22:20.257Z,94329.00
2023-05-21T09:23:20.265Z,94331.00
2023-05-21T09:24:20.307Z,94339.00
2023-05-21T09:25:20.328Z,94331.00
2023-05-21T09:26:20.320Z,94339.00
2023-05-21T09:27:20.356Z,94331.00
2023-05-21T09:28:20.367Z,94325.00
2023-05-21T09:29:20.449Z,94325.00
2023-05-21T09:30:22.569Z,94333.00
2023-05-21T09:31:20.529Z,94327.00
2023-05-21T09:32:20.474Z,94342.00
2023-05-21T09:33:20.444Z,94331.00
2023-05-21T09:34:20.521Z,94329.00
2023-05-21T09:35:20.450Z,94335.00
2023-05-21T09:36:20.422Z,94340.00
2023-05-21T09:38:21.455Z,94356.00
2023-05-21T09:39:20.420Z,94340.00
2023-05-21T09:40:20.413Z,94344.00
2023-05-21T09:41:22.231Z,94339.00
2023-05-21T09:42:20.418Z,94342.00
2023-05-21T09:43:20.391Z,94350.00
2023-05-21T09:44:20.406Z,94350.00
2023-05-21T09:45:20.421Z,94344.00
2023-05-21T09:46:20.444Z,94348.00
2023-05-21T09:47:20.523Z,94339.00
2023-05-21T09:48:20.386Z,94340.00
2023-05-21T09:49:20.400Z,94323.00
2023-05-21T09:50:20.443Z,94335.00
2023-05-21T09:51:20.362Z,94333.00
2023-05-21T09:52:20.361Z,94339.00
2023-05-21T09:53:20.354Z,94340.00
2023-05-21T09:54:20.369Z,94342.00
2023-05-21T09:55:20.388Z,94348.00
2023-05-21T09:56:20.419Z,94339.00
2023-05-21T09:57:20.424Z,94348.00
2023-05-21T09:58:20.463Z,94364.00
2023-05-21T09:59:20.523Z,94321.00
2023-05-21T10:00:20.545Z,94350.00
2023-05-21T10:01:20.655Z,94342.00
2023-05-21T10:02:20.678Z,94327.00
2023-05-21T10:03:20.760Z,94339.00
2023-05-21T10:04:20.737Z,94335.00
2023-05-21T10:05:20.754Z,94346.00
2023-05-21T10:06:20.818Z,94342.00
2023-05-21T10:07:20.766Z,94340.00
2023-05-21T10:08:20.805Z,94339.00
2023-05-21T10:09:20.811Z,94340.00
2023-05-21T10:10:20.892Z,94342.00
2023-05-21T10:11:20.913Z,94340.00
2023-05-21T10:12:20.933Z,94333.00
2023-05-21T10:13:20.943Z,94337.00
2023-05-21T10:14:20.997Z,94344.00
2023-05-21T10:15:21.030Z,94348.00
2023-05-21T10:16:21.110Z,94339.00
2023-05-21T10:17:21.124Z,94340.00
2023-05-21T10:18:21.069Z,94344.00
2023-05-21T10:19:21.268Z,94333.00
2023-05-21T10:20:21.121Z,94335.00
2023-05-21T10:21:21.165Z,94340.00
2023-05-21T10:22:21.198Z,94333.00
2023-05-21T10:23:21.231Z,94329.00
2023-05-21T10:24:21.232Z,94335.00
2023-05-21T10:25:21.258Z,94335.00
2023-05-21T10:26:21.284Z,94327.00
2023-05-21T10:27:21.309Z,94325.00
2023-05-21T10:28:21.352Z,94327.00
2023-05-21T10:29:21.416Z,94331.00
2023-05-21T10:30:21.424Z,94327.00
2023-05-21T10:31:21.475Z,94319.00
2023-05-21T10:32:21.638Z,94323.00
2023-05-21T10:33:21.539Z,94331.00
2023-05-21T10:34:21.553Z,94327.00
2023-05-21T10:35:21.561Z,94327.00
2023-05-21T10:36:21.593Z,94315.00
2023-05-21T10:37:21.597Z,94323.00
2023-05-21T10:38:21.622Z,94311.00
2023-05-21T10:39:21.657Z,94317.00
2023-05-21T10:40:21.697Z,94305.00
2023-05-21T10:41:21.748Z,94309.00
2023-05-21T10:42:21.748Z,94307.00
2023-05-21T10:43:21.802Z,94307.00
2023-05-21T10:44:21.831Z,94311.00
2023-05-21T10:45:21.858Z,94313.00
2023-05-21T10:46:22.039Z,94307.00
2023-05-21T10:47:21.944Z,94323.00
2023-05-21T10:48:22.026Z,94301.00
2023-05-21T10:49:22.042Z,94299.00
2023-05-21T10:50:22.066Z,94299.00
2023-05-21T10:51:22.046Z,94301.00
2023-05-21T10:52:22.094Z,94301.00
2023-05-21T10:53:22.119Z,94305.00
2023-05-21T10:54:22.196Z,94295.00
2023-05-21T10:55:22.223Z,94299.00
2023-05-21T10:56:22.197Z,94303.00
2023-05-21T10:57:22.232Z,94299.00
2023-05-21T10:58:22.267Z,94295.00
2023-05-21T10:59:22.556Z,94295.00
2023-05-21T11:00:22.326Z,94305.00
2023-05-21T11:01:22.429Z,94286.00
2023-05-21T11:02:22.428Z,94284.00
2023-05-21T11:03:22.474Z,94305.00
2023-05-21T11:04:22.391Z,94301.00
2023-05-21T11:05:22.417Z,94295.00
2023-05-21T11:06:22.486Z,94295.00
2023-05-21T11:07:22.488Z,94293.00
2023-05-21T11:08:22.605Z,94303.00
2023-05-21T11:09:22.612Z,94293.00
2023-05-21T11:10:22.628Z,94295.00
2023-05-21T11:11:22.642Z,94280.00
2023-05-21T11:12:22.648Z,94288.00
2023-05-21T11:13:22.727Z,94295.00
2023-05-21T11:14:22.759Z,94282.00
2023-05-21T11:15:22.741Z,94305.00
2023-05-21T11:16:22.808Z,94297.00
2023-05-21T11:17:22.821Z,94291.00
2023-05-21T11:18:22.835Z,94286.00
2023-05-21T11:19:22.929Z,94291.00
2023-05-21T11:20:22.875Z,94289.00
2023-05-21T11:21:22.976Z,94288.00
2023-05-21T11:22:22.962Z,94291.00
2023-05-21T11:23:23.000Z,94295.00
2023-05-21T11:24:23.048Z,94286.00
2023-05-21T11:25:23.060Z,94297.00
2023-05-21T11:26:23.084Z,94291.00
2023-05-21T11:27:23.096Z,94291.00
2023-05-21T11:28:23.147Z,94297.00
2023-05-21T11:29:23.141Z,94289.00
2023-05-21T11:30:23.158Z,94280.00
2023-05-21T11:31:23.227Z,94286.00
2023-05-21T11:32:23.293Z,94286.00
2023-05-21T11:33:23.246Z,94286.00
2023-05-21T11:34:23.250Z,94291.00
2023-05-21T11:35:23.276Z,94288.00
2023-05-21T11:36:23.341Z,94284.00
2023-05-21T11:37:23.415Z,94286.00
2023-05-21T11:38:23.405Z,94284.00
2023-05-21T11:39:23.439Z,94284.00
2023-05-21T11:40:23.456Z,94295.00
2023-05-21T11:41:23.500Z,94289.00
2023-05-21T11:42:23.538Z,94278.00
2023-05-21T11:43:23.575Z,94276.00
2023-05-21T11:44:23.624Z,94288.00
2023-05-21T11:45:23.640Z,94286.00